Time;durP1;ratioP1;P1;durP2;ratioP2;P2;SDS_P1;SDS_P2;PMS_P1;PMS_P2;Temp;Humidity;BMP_temperature;BMP_pressure;BME280_temperature;BME280_humidity;BME280_pressure;Samples;Min_cycle;Max_cycle;Signal;HPM_P1;HPM_P2
2022/12/19 00:01:20;;;;;;;7.83;5.90;;;;;-1.70;96754.00;;;;5035482;28;20189;-59
2022/12/19 00:03:50;;;;;;;4.93;4.27;;;;;-1.70;96747.00;;;;5017559;28;20236;-58
2022/12/19 00:06:20;;;;;;;12.63;4.77;;;;;-1.70;96734.00;;;;5035839;28;20189;-58
2022/12/19 00:08:49;;;;;;;4.80;2.77;;;;;-1.60;96744.00;;;;5017855;28;20562;-58
2022/12/19 00:11:18;;;;;;;8.47;5.80;;;;;-1.60;96735.00;;;;5035289;28;20270;-58
2022/12/19 00:13:46;;;;;;;4.87;3.30;;;;;-1.50;96731.00;;;;5017371;28;20927;-58
2022/12/19 00:16:17;;;;;;;5.03;4.57;;;;;-1.50;96733.00;;;;5035768;28;20266;-58
2022/12/19 00:18:46;;;;;;;4.37;4.07;;;;;-1.50;96716.00;;;;5035342;28;20181;-58
2022/12/19 00:21:19;;;;;;;4.10;2.97;;;;;-1.50;96715.00;;;;5035398;28;20652;-58
2022/12/19 00:23:47;;;;;;;5.47;3.87;;;;;-1.40;96722.00;;;;5035020;28;20217;-58
2022/12/19 00:26:16;;;;;;;4.07;3.50;;;;;-1.50;96721.00;;;;5035001;28;20193;-58
2022/12/19 00:28:45;;;;;;;7.33;4.13;;;;;-1.50;96719.00;;;;5035676;28;20193;-58
2022/12/19 00:31:14;;;;;;;11.37;5.03;;;;;-1.60;96722.00;;;;5034911;28;20200;-58
2022/12/19 00:33:42;;;;;;;5.10;4.60;;;;;-1.60;96718.00;;;;5035006;28;20220;-57
2022/12/19 00:36:13;;;;;;;2.87;2.53;;;;;-1.60;96720.00;;;;5034998;28;20188;-58
2022/12/19 00:38:43;;;;;;;4.03;2.73;;;;;-1.60;96718.00;;;;5035282;28;20181;-58
2022/12/19 00:41:13;;;;;;;4.07;3.50;;;;;-1.50;96710.00;;;;5034999;28;20189;-58
2022/12/19 00:43:42;;;;;;;6.20;3.70;;;;;-1.50;96700.00;;;;5034459;28;20220;-58
2022/12/19 00:46:13;;;;;;;3.53;3.10;;;;;-1.40;96713.00;;;;5034728;28;20255;-58
2022/12/19 00:48:42;;;;;;;3.77;3.47;;;;;-1.40;96709.00;;;;5035958;28;20523;-58
2022/12/19 00:51:13;;;;;;;5.80;3.60;;;;;-1.40;96713.00;;;;5034411;28;20648;-58
2022/12/19 00:53:42;;;;;;;4.23;3.77;;;;;-1.50;96709.00;;;;5034642;28;20270;-58
2022/12/19 00:56:12;;;;;;;4.17;3.23;;;;;-1.50;96708.00;;;;5034670;28;20267;-58
2022/12/19 00:58:39;;;;;;;4.53;4.13;;;;;-1.40;96708.00;;;;5034361;28;20192;-58
2022/12/19 01:01:08;;;;;;;5.80;4.60;;;;;-1.40;96700.00;;;;5016627;28;20718;-58
2022/12/19 01:03:36;;;;;;;3.30;3.00;;;;;-1.40;96716.00;;;;5034184;28;20259;-58
2022/12/19 01:06:05;;;;;;;3.43;3.20;;;;;-1.50;96711.00;;;;5034453;28;20188;-58
2022/12/19 01:08:32;;;;;;;7.90;4.30;;;;;-1.40;96701.00;;;;5034885;28;20196;-58
2022/12/19 01:11:00;;;;;;;3.30;3.10;;;;;-1.30;96708.00;;;;5034429;28;20251;-58
2022/12/19 01:13:28;;;;;;;4.07;3.67;;;;;-1.40;96698.00;;;;5034063;28;20687;-59
2022/12/19 01:15:56;;;;;;;3.53;3.23;;;;;-1.40;96710.00;;;;5016304;28;20224;-59
2022/12/19 01:18:23;;;;;;;14.57;3.83;;;;;-1.50;96692.00;;;;5034476;28;20197;-57
2022/12/19 01:20:51;;;;;;;8.60;3.40;;;;;-1.50;96699.00;;;;5034065;28;20532;-58
2022/12/19 01:23:19;;;;;;;5.50;4.33;;;;;-1.50;96702.00;;;;5034159;28;20222;-58
2022/12/19 01:25:52;;;;;;;5.17;4.53;;;;;-1.50;96701.00;;;;5034345;28;20200;-58
2022/12/19 01:28:19;;;;;;;4.73;3.47;;;;;-1.60;96705.00;;;;5034441;28;20542;-58
2022/12/19 01:30:47;;;;;;;4.17;3.20;;;;;-1.60;96706.00;;;;5033833;28;20240;-58
2022/12/19 01:33:16;;;;;;;2.53;2.33;;;;;-1.50;96703.00;;;;5033699;28;20220;-59
2022/12/19 01:35:45;;;;;;;4.30;3.90;;;;;-1.50;96699.00;;;;5034184;28;20220;-58
2022/12/19 01:38:14;;;;;;;4.30;3.33;;;;;-1.60;96705.00;;;;5015942;28;20710;-59
2022/12/19 01:40:50;;;;;;;4.47;3.93;;;;;-1.50;96683.00;;;;5034142;28;20197;-59
2022/12/19 01:43:17;;;;;;;6.67;4.47;;;;;-1.40;96702.00;;;;5015881;28;20220;-59
2022/12/19 01:45:46;;;;;;;3.53;3.10;;;;;-1.60;96695.00;;;;5033877;28;20195;-58
2022/12/19 01:48:20;;;;;;;6.63;4.13;;;;;-1.50;96694.00;;;;5033571;28;20196;-59
2022/12/19 01:50:53;;;;;;;2.10;2.00;;;;;-1.50;96678.00;;;;5034354;28;20193;-58
2022/12/19 01:53:22;;;;;;;4.53;4.07;;;;;-1.60;96662.00;;;;5015894;28;20691;-58
2022/12/19 01:55:51;;;;;;;2.30;2.20;;;;;-1.50;96664.00;;;;5032803;28;20687;-58
2022/12/19 01:58:19;;;;;;;3.37;3.07;;;;;-1.50;96661.00;;;;5033625;28;20575;-58
2022/12/19 02:00:46;;;;;;;5.37;3.03;;;;;-1.60;96657.00;;;;5033593;28;20223;-58
2022/12/19 02:03:22;;;;;;;8.53;4.67;;;-0.20;99.90;-1.50;96657.00;;;;5033180;28;20216;-58
2022/12/19 02:05:51;;;;;;;4.27;3.87;;;-0.10;99.90;-1.50;96663.00;;;;5033609;28;20694;-58
2022/12/19 02:08:18;;;;;;;3.17;2.97;;;-0.20;99.90;-1.50;96666.00;;;;5033172;28;20194;-58
2022/12/19 02:10:45;;;;;;;3.87;3.57;;;-0.30;99.90;-1.50;96662.00;;;;5033936;28;20201;-58
2022/12/19 02:13:14;;;;;;;8.10;4.37;;;-0.30;99.90;-1.50;96663.00;;;;5033259;28;20221;-58
2022/12/19 02:15:55;;;;;;;5.30;4.43;;;-0.20;99.90;-1.50;96657.00;;;;5033062;28;20307;-58
2022/12/19 02:18:38;;;;;;;7.93;3.73;;;-0.20;99.90;-1.40;96663.00;;;;5033103;28;20204;-58
2022/12/19 02:21:22;;;;;;;3.83;3.53;;;-0.20;99.90;-1.40;96650.00;;;;5033793;28;20189;-58
2022/12/19 02:24:46;;;;;;;2.47;2.37;;;-0.20;99.90;-1.30;96663.00;;;;5032998;28;20216;-58
2022/12/19 02:27:43;;;;;;;4.07;3.30;;;-0.10;99.90;-1.20;96662.00;;;;5033036;28;20185;-58
2022/12/19 02:30:15;;;;;;;4.23;3.63;;;-0.10;99.90;-1.20;96662.00;;;;5033597;28;20601;-58
2022/12/19 02:32:57;;;;;;;5.43;4.17;;;0.00;99.90;-1.10;96652.00;;;;5032869;28;20707;-58
2022/12/19 02:35:37;;;;;;;5.33;4.80;;;0.00;99.90;-1.20;96661.00;;;;5033137;28;20727;-58
2022/12/19 02:38:18;;;;;;;5.60;3.03;;;0.00;99.90;-1.10;96656.00;;;;5033247;28;20188;-58
2022/12/19 02:40:52;;;;;;;2.07;1.97;;;0.00;99.90;-1.30;96669.00;;;;5033652;28;20181;-57
2022/12/19 02:43:21;;;;;;;4.20;3.03;;;0.00;99.90;-1.30;96671.00;;;;5032930;28;20245;-58
2022/12/19 02:45:50;;;;;;;3.37;3.07;;;-0.10;99.90;-1.20;96678.00;;;;5032770;28;20687;-58
2022/12/19 02:48:20;;;;;;;5.00;2.97;;;0.00;99.90;-1.30;96693.00;;;;5032745;28;20189;-58
2022/12/19 02:50:48;;;;;;;3.73;3.43;;;0.00;99.90;-1.30;96667.00;;;;5033384;28;20196;-59
2022/12/19 02:53:16;;;;;;;4.47;3.07;;;-0.10;99.90;-1.30;96669.00;;;;5032684;28;20720;-59
2022/12/19 02:56:05;;;;;;;2.33;2.13;;;-0.10;99.90;-1.30;96670.00;;;;5033162;28;20236;-59
2022/12/19 02:58:58;;;;;;;4.13;3.80;;;-0.10;99.90;-1.30;96670.00;;;;5032781;28;20180;-58
2022/12/19 03:01:44;;;;;;;4.23;3.43;;;-0.10;99.90;-1.20;96680.00;;;;5032905;28;20192;-59
2022/12/19 03:04:24;;;;;;;4.23;3.87;;;-0.10;99.90;-1.20;96686.00;;;;5032757;28;20178;-59
2022/12/19 03:07:00;;;;;;;4.57;3.67;;;-0.10;99.90;-1.20;96680.00;;;;5032658;28;20185;-58
2022/12/19 03:09:39;;;;;;;6.87;4.77;;;0.00;99.90;-1.00;96693.00;;;;5035251;28;20180;-59
2022/12/19 03:12:14;;;;;;;5.97;3.80;;;0.10;99.90;-1.00;96691.00;;;;5036632;28;20212;-59
2022/12/19 03:14:43;;;;;;;2.47;2.37;;;0.10;99.90;-1.00;96689.00;;;;5036577;28;20559;-58
2022/12/19 03:17:10;;;;;;;2.83;2.63;;;0.10;99.90;-1.00;96687.00;;;;5036359;28;20304;-59
2022/12/19 03:19:40;;;;;;;7.13;4.60;;;0.10;99.90;-1.00;96675.00;;;;5036479;28;20704;-59
2022/12/19 03:22:08;;;;;;;4.33;3.77;;;0.20;99.90;-1.00;96683.00;;;;5036573;28;20219;-59
2022/12/19 03:24:35;;;;;;;4.43;4.03;;;0.10;99.90;-1.00;96692.00;;;;5036189;28;20196;-59
2022/12/19 03:27:09;;;;;;;16.17;4.03;;;0.20;99.90;-0.90;96686.00;;;;5036803;28;20563;-59
2022/12/19 03:29:42;;;;;;;7.03;3.93;;;0.20;99.90;-0.90;96688.00;;;;5036087;28;20177;-59
2022/12/19 03:32:15;;;;;;;3.53;3.23;;;0.20;99.90;-0.90;96682.00;;;;5044016;22;20233;-59
2022/12/19 03:34:49;;;;;;;5.87;3.63;;;0.30;99.90;-0.90;96689.00;;;;5036225;28;20224;-58
2022/12/19 03:37:20;;;;;;;3.93;3.63;;;0.20;99.90;-0.90;96686.00;;;;5036271;28;20173;-59
2022/12/19 03:39:53;;;;;;;5.83;3.27;;;0.20;99.90;-0.90;96687.00;;;;5035924;28;20209;-58
2022/12/19 03:45:16;;;;;;;3.23;3.00;;;0.30;99.90;-0.80;96689.00;;;;5036006;28;20190;-58
2022/12/19 03:47:50;;;;;;;5.50;2.53;;;0.30;99.90;-0.80;96676.00;;;;5035822;28;20182;-58
2022/12/19 03:50:19;;;;;;;6.00;3.40;;;;;-0.80;96679.00;;;;5036077;28;20188;-58
2022/12/19 03:52:52;;;;;;;6.50;3.80;;;;;-0.90;96684.00;;;;5036231;28;20757;-59
2022/12/19 03:55:26;;;;;;;4.60;4.20;;;;;-0.70;96672.00;;;;5036066;28;20251;-58
2022/12/19 03:57:58;;;;;;;5.23;4.40;;;;;-0.70;96678.00;;;;5035556;28;20180;-58
2022/12/19 04:00:26;;;;;;;3.40;3.17;;;;;-0.70;96676.00;;;;5017810;28;20248;-58
2022/12/19 04:02:57;;;;;;;4.30;3.90;;;;;-0.70;96680.00;;;;5035900;28;20274;-58
2022/12/19 04:05:28;;;;;;;4.97;3.77;;;;;-0.60;96680.00;;;;5035461;28;20189;-59
2022/12/19 04:08:02;;;;;;;4.47;4.10;;;0.50;99.90;-0.70;96671.00;;;;5035492;28;20644;-59
2022/12/19 04:10:33;;;;;;;2.63;2.33;;;0.60;99.90;-0.70;96672.00;;;;5035396;28;20173;-59
2022/12/19 04:13:05;;;;;;;3.70;2.93;;;0.40;99.90;-0.60;96680.00;;;;5035585;28;20209;-58
2022/12/19 04:15:46;;;;;;;4.47;2.90;;;0.60;99.90;-0.60;96684.00;;;;5035450;28;20202;-59
2022/12/19 04:18:15;;;;;;;4.17;3.03;;;0.60;99.90;-0.60;96685.00;;;;5035648;28;20186;-60
2022/12/19 04:20:50;;;;;;;3.30;3.03;;;0.60;99.90;-0.60;96695.00;;;;5035169;28;20185;-58
2022/12/19 04:23:24;;;;;;;2.03;1.87;;;0.60;99.90;-0.60;96692.00;;;;5035048;28;20270;-60
2022/12/19 04:25:59;;;;;;;4.60;3.53;;;0.60;99.90;-0.60;96691.00;;;;5035367;28;20184;-58
2022/12/19 04:28:34;;;;;;;9.43;3.83;;;0.60;99.90;-0.60;96684.00;;;;5035226;28;20591;-58
2022/12/19 04:31:02;;;;;;;5.57;5.00;;;0.50;99.90;-0.60;96684.00;;;;5034961;28;20230;-58
2022/12/19 04:33:29;;;;;;;7.97;4.53;;;0.60;99.90;-0.60;96690.00;;;;5035083;28;20209;-58
2022/12/19 04:35:58;;;;;;;2.53;1.97;;;0.60;99.90;-0.60;96685.00;;;;5035249;28;20283;-58
2022/12/19 04:38:26;;;;;;;4.90;3.83;;;0.60;99.90;-0.60;96690.00;;;;5034784;28;20193;-58
2022/12/19 04:40:53;;;;;;;2.60;2.43;;;0.50;99.90;-0.50;96699.00;;;;5034743;28;20191;-58
2022/12/19 04:43:20;;;;;;;4.27;2.60;;;0.60;99.90;-0.50;96697.00;;;;5035075;28;20209;-58
2022/12/19 04:45:47;;;;;;;4.07;2.83;;;0.60;99.90;-0.60;96692.00;;;;5034969;28;20212;-58
2022/12/19 04:48:14;;;;;;;7.17;3.47;;;0.60;99.90;-0.50;96696.00;;;;5034886;28;20185;-60
2022/12/19 04:50:41;;;;;;;3.30;2.93;;;0.60;99.90;-0.50;96685.00;;;;5034819;28;20601;-58
2022/12/19 04:53:10;;;;;;;4.30;3.33;;;0.60;99.90;-0.50;96682.00;;;;5034871;28;20221;-58
2022/12/19 04:55:38;;;;;;;6.27;3.43;;;0.70;99.90;-0.50;96694.00;;;;5034607;28;20217;-59
2022/12/19 04:58:06;;;;;;;4.00;2.97;;;0.60;99.90;-0.50;96682.00;;;;5034395;28;20198;-59
2022/12/19 05:00:34;;;;;;;2.30;2.20;;;0.60;99.90;-0.40;96690.00;;;;5034596;28;20216;-58
2022/12/19 05:03:01;;;;;;;3.03;2.80;;;0.70;99.90;-0.40;96688.00;;;;5034300;28;20213;-58
2022/12/19 05:05:28;;;;;;;2.63;2.43;;;0.70;99.90;-0.50;96690.00;;;;5034623;28;20220;-58
2022/12/19 05:07:58;;;;;;;5.77;3.10;;;0.70;99.90;-0.50;96685.00;;;;5034176;28;20193;-58
2022/12/19 05:10:26;;;;;;;2.70;2.50;;;0.70;99.90;-0.50;96685.00;;;;5034682;28;20668;-58
2022/12/19 05:12:54;;;;;;;3.83;3.60;;;0.70;99.90;-0.50;96681.00;;;;5034134;28;20280;-58
2022/12/19 05:15:21;;;;;;;5.07;3.33;;;0.60;99.90;-0.40;96678.00;;;;5034263;28;20213;-58
2022/12/19 05:17:48;;;;;;;5.33;3.07;;;0.70;99.90;-0.40;96671.00;;;;5034014;28;20675;-58
2022/12/19 05:20:15;;;;;;;2.43;2.23;;;0.70;99.90;-0.40;96685.00;;;;5034029;28;20247;-58
2022/12/19 05:22:42;;;;;;;6.17;3.63;;;0.70;99.90;-0.40;96676.00;;;;5034082;28;20683;-58
2022/12/19 05:25:10;;;;;;;2.87;2.67;;;0.80;99.90;-0.30;96681.00;;;;5034395;28;20197;-58
2022/12/19 05:27:38;;;;;;;3.10;2.90;;;0.80;99.90;-0.30;96679.00;;;;5034134;28;20221;-58
2022/12/19 05:30:07;;;;;;;3.93;2.33;;;0.90;99.90;-0.30;96685.00;;;;5034047;28;20664;-58
2022/12/19 05:32:34;;;;;;;2.20;2.10;;;0.90;99.90;-0.30;96675.00;;;;5032955;28;20743;-58
2022/12/19 05:35:01;;;;;;;3.70;3.30;;;0.80;99.90;-0.30;96684.00;;;;5033689;28;20655;-58
2022/12/19 05:37:28;;;;;;;4.50;2.90;;;0.80;99.90;-0.30;96675.00;;;;5033606;28;20195;-58
2022/12/19 05:39:55;;;;;;;4.13;3.17;;;0.90;99.90;-0.20;96663.00;;;;5033767;28;20656;-58
2022/12/19 05:42:22;;;;;;;3.70;2.53;;;0.90;99.90;-0.20;96674.00;;;;5034196;28;20697;-58
2022/12/19 05:44:50;;;;;;;7.27;4.03;;;0.90;99.90;-0.10;96670.00;;;;5034414;28;20189;-58
2022/12/19 05:47:21;;;;;;;4.37;3.63;;;1.00;99.90;-0.10;96671.00;;;;5033450;28;20252;-58
2022/12/19 05:49:48;;;;;;;3.70;3.40;;;1.00;99.90;-0.10;96674.00;;;;5033967;28;20187;-61
2022/12/19 05:52:15;;;;;;;3.60;3.13;;;1.10;99.90;-0.10;96663.00;;;;5033535;28;20213;-58
2022/12/19 05:54:42;;;;;;;2.33;2.23;;;1.10;99.90;0.00;96667.00;;;;5016112;28;20602;-58
2022/12/19 05:57:09;;;;;;;2.80;2.33;;;1.10;99.90;0.00;96670.00;;;;5033539;28;20229;-58
2022/12/19 05:59:36;;;;;;;4.73;4.27;;;1.10;99.90;0.10;96675.00;;;;5033650;28;20193;-58
2022/12/19 06:02:04;;;;;;;2.63;2.03;;;1.30;99.90;0.10;96691.00;;;;5033275;28;20672;-59
2022/12/19 06:04:31;;;;;;;14.03;7.40;;;1.30;99.90;0.20;96670.00;;;;5015509;28;20601;-58
2022/12/19 06:06:58;;;;;;;3.33;3.00;;;1.30;99.90;0.20;96672.00;;;;5033742;28;20669;-58
2022/12/19 06:09:26;;;;;;;4.60;3.77;;;1.30;99.90;0.30;96676.00;;;;5033274;28;20189;-60
2022/12/19 06:11:53;;;;;;;3.03;2.80;;;1.30;99.90;0.30;96672.00;;;;5033363;28;20557;-58
2022/12/19 06:14:20;;;;;;;5.90;3.13;;;1.40;99.90;0.30;96670.00;;;;5033136;28;20191;-57
2022/12/19 06:16:47;;;;;;;4.30;3.90;;;1.40;99.90;0.40;96669.00;;;;5033648;28;20648;-58
2022/12/19 06:19:15;;;;;;;6.47;4.57;;;1.50;99.90;0.60;96674.00;;;;5033582;28;20192;-57
2022/12/19 06:21:43;;;;;;;2.47;2.33;;;1.70;99.90;0.60;96680.00;;;;5032910;28;20256;-58
2022/12/19 06:24:10;;;;;;;8.73;4.10;;;1.70;99.90;0.60;96680.00;;;;5033241;28;20191;-58
2022/12/19 06:26:37;;;;;;;4.00;3.70;;;1.80;99.90;1.00;96675.00;;;;5033447;28;20210;-58
2022/12/19 06:29:04;;;;;;;2.87;2.67;;;1.90;99.90;1.00;96663.00;;;;5032934;28;20203;-57
2022/12/19 06:31:31;;;;;;;7.17;4.77;;;2.00;99.90;1.00;96675.00;;;;5033080;28;20199;-58
2022/12/19 06:33:58;;;;;;;3.73;3.20;;;2.00;99.90;0.90;96671.00;;;;5032894;28;20250;-56
2022/12/19 06:36:30;;;;;;;4.43;4.03;;;2.00;99.90;0.80;96677.00;;;;5033311;28;20223;-57
2022/12/19 06:38:58;;;;;;;4.77;3.97;;;1.90;99.90;0.80;96673.00;;;;5033187;28;20225;-59
2022/12/19 06:44:15;;;;;;;2.83;2.63;;;1.80;99.90;0.80;96671.00;;;;5036697;28;20179;-59
2022/12/19 06:46:43;;;;;;;5.77;4.77;;;1.80;99.90;0.80;96695.00;;;;5037709;28;20627;-58
2022/12/19 06:49:11;;;;;;;12.03;4.80;;;1.80;99.90;0.70;96688.00;;;;5019158;28;20202;-58
2022/12/19 06:51:39;;;;;;;3.33;3.13;;;1.80;99.90;0.70;96672.00;;;;5036397;28;20202;-59
2022/12/19 06:54:06;;;;;;;6.97;3.30;;;1.80;99.90;0.80;96682.00;;;;5036706;28;20196;-59
2022/12/19 06:56:38;;;;;;;3.87;3.50;;;1.80;99.90;0.80;96672.00;;;;5036827;28;20669;-58
2022/12/19 06:59:05;;;;;;;2.83;2.63;;;1.80;99.90;0.80;96668.00;;;;5036960;28;20176;-58
2022/12/19 07:01:51;;;;;;;4.73;3.17;;;1.80;99.90;0.80;96660.00;;;;5036437;28;20187;-59
2022/12/19 07:04:24;;;;;;;3.73;3.43;;;1.80;99.90;0.90;96661.00;;;;5037449;28;20568;-58
2022/12/19 07:06:53;;;;;;;3.00;2.50;;;1.90;99.90;1.00;96660.00;;;;5037321;28;20191;-59
2022/12/19 07:09:21;;;;;;;4.30;2.53;;;2.00;99.90;0.90;96666.00;;;;5018763;28;20198;-58
2022/12/19 07:11:47;;;;;;;4.43;3.20;;;2.00;99.90;0.90;96658.00;;;;5036602;28;20241;-59
2022/12/19 07:14:14;;;;;;;7.37;5.03;;;1.90;99.90;0.90;96667.00;;;;5036451;28;20195;-58
2022/12/19 07:16:42;;;;;;;8.13;3.87;;;1.90;99.90;1.00;96667.00;;;;5037146;28;20223;-58
2022/12/19 07:19:10;;;;;;;3.87;3.03;;;2.00;99.90;1.00;96656.00;;;;5036300;28;20192;-58
2022/12/19 07:21:38;;;;;;;3.50;3.23;;;2.10;99.90;0.90;96666.00;;;;5036758;28;20194;-59
2022/12/19 07:24:08;;;;;;;6.83;3.97;;;2.00;99.90;1.00;96667.00;;;;5036258;28;20195;-60
2022/12/19 07:26:35;;;;;;;4.80;3.20;;;2.00;99.90;1.10;96674.00;;;;5036712;28;20274;-59
2022/12/19 07:29:03;;;;;;;5.23;2.97;;;2.10;99.90;1.10;96685.00;;;;5036342;28;20191;-59
2022/12/19 07:31:30;;;;;;;3.30;3.00;;;2.20;99.90;1.20;96684.00;;;;5035987;28;20550;-59
2022/12/19 07:33:57;;;;;;;4.63;3.03;;;2.20;99.90;1.20;96679.00;;;;5035925;28;20302;-58
2022/12/19 07:36:24;;;;;;;4.30;2.97;;;2.20;99.90;1.10;96684.00;;;;5018176;28;20638;-60
2022/12/19 07:38:51;;;;;;;6.10;3.57;;;2.20;99.90;1.10;96673.00;;;;5036115;28;20195;-58
2022/12/19 07:41:20;;;;;;;3.43;2.17;;;2.20;99.90;1.20;96661.00;;;;5035807;28;20203;-58
2022/12/19 07:43:47;;;;;;;3.60;2.53;;;2.20;99.90;1.20;96676.00;;;;5035664;28;20212;-58
2022/12/19 07:46:14;;;;;;;3.03;2.80;;;2.20;99.90;1.20;96680.00;;;;5035916;28;20211;-58
2022/12/19 07:48:41;;;;;;;2.40;2.30;;;2.30;99.90;1.30;96678.00;;;;5036412;28;20196;-58
2022/12/19 07:51:08;;;;;;;7.60;2.07;;;2.30;99.90;1.20;96699.00;;;;5036167;28;20202;-58
2022/12/19 07:53:35;;;;;;;3.43;3.17;;;2.30;99.90;1.20;96688.00;;;;5035094;28;20207;-58
2022/12/19 07:56:02;;;;;;;2.20;2.10;;;2.30;99.90;1.30;96686.00;;;;5035457;28;20192;-58
2022/12/19 07:58:31;;;;;;;4.00;3.53;;;2.30;99.90;1.40;96691.00;;;;5036130;28;20204;-58
2022/12/19 08:01:00;;;;;;;2.80;2.60;;;2.40;99.90;1.50;96696.00;;;;5035481;28;20276;-59
2022/12/19 08:03:28;;;;;;;2.63;2.53;;;2.40;99.90;1.50;96694.00;;;;5035665;28;20655;-59
2022/12/19 08:06:00;;;;;;;2.47;2.27;;;2.50;99.90;1.50;96712.00;;;;5034843;28;20290;-59
2022/12/19 08:08:29;;;;;;;3.17;2.90;;;2.50;99.90;1.70;96716.00;;;;5018771;28;20214;-59
2022/12/19 08:10:56;;;;;;;3.07;2.83;;;2.60;99.90;1.70;96706.00;;;;5017619;28;20245;-59
2022/12/19 08:13:23;;;;;;;2.50;2.33;;;2.70;99.90;1.70;96714.00;;;;5035191;28;20204;-59
2022/12/19 08:15:52;;;;;;;1.83;1.73;;;2.70;99.90;1.70;96704.00;;;;5035186;28;20187;-59
2022/12/19 08:18:19;;;;;;;2.40;1.93;;;2.70;99.90;1.80;96712.00;;;;5035950;28;20196;-59
2022/12/19 08:20:46;;;;;;;4.83;2.93;;;2.70;99.90;1.90;96700.00;;;;5035456;28;20655;-59
2022/12/19 08:23:13;;;;;;;3.13;2.47;;;2.80;99.90;1.90;96698.00;;;;5035085;28;20714;-59
2022/12/19 08:25:40;;;;;;;10.47;3.17;;;2.80;99.90;1.90;96698.00;;;;5035174;28;20660;-60
2022/12/19 08:28:07;;;;;;;6.07;3.77;;;2.90;99.90;1.90;96690.00;;;;5035025;28;20283;-59
2022/12/19 08:30:35;;;;;;;2.43;2.13;;;2.90;99.90;2.00;96693.00;;;;5035371;28;20192;-59
2022/12/19 08:33:04;;;;;;;2.77;2.50;;;3.00;99.90;2.00;96679.00;;;;5034831;28;20228;-59
2022/12/19 08:35:31;;;;;;;2.10;1.90;;;2.90;99.90;2.10;96687.00;;;;5035117;28;20223;-59
2022/12/19 08:37:58;;;;;;;2.70;2.37;;;3.10;99.90;2.30;96696.00;;;;5034727;28;20272;-59
2022/12/19 08:40:25;;;;;;;3.43;2.87;;;3.20;99.90;2.40;96678.00;;;;5035217;28;20214;-60
2022/12/19 08:42:52;;;;;;;2.00;1.90;;;3.20;99.90;2.40;96697.00;;;;5034559;28;20212;-60
2022/12/19 08:45:19;;;;;;;3.30;2.67;;;3.30;99.90;2.40;96694.00;;;;5034870;28;20203;-60
2022/12/19 08:47:46;;;;;;;3.33;2.97;;;3.40;99.20;2.40;96689.00;;;;5016878;28;20254;-59
2022/12/19 08:50:15;;;;;;;3.47;3.23;;;3.30;99.90;2.30;96673.00;;;;5035006;28;20208;-59
2022/12/19 08:52:44;;;;;;;1.47;1.47;;;3.30;99.90;2.30;96649.00;;;;5034553;28;20326;-59
2022/12/19 08:55:11;;;;;;;2.77;2.43;;;3.30;99.90;2.40;96672.00;;;;5034448;28;20189;-60
2022/12/19 08:57:38;;;;;;;2.07;1.77;;;3.30;99.90;2.50;96663.00;;;;5034289;28;20223;-59
2022/12/19 09:00:07;;;;;;;4.63;3.97;;;3.40;99.90;2.60;96662.00;;;;5034933;28;20253;-59
2022/12/19 09:02:34;;;;;;;2.27;2.17;;;3.50;99.90;2.70;96659.00;;;;5034348;28;20216;-59
2022/12/19 09:05:01;;;;;;;11.03;3.23;;;3.60;99.90;2.80;96668.00;;;;5034490;28;20192;-59
2022/12/19 09:07:29;;;;;;;1.80;1.70;;;3.70;99.90;2.80;96669.00;;;;5034340;28;20254;-59
2022/12/19 09:09:56;;;;;;;2.73;2.53;;;3.70;99.90;2.90;96663.00;;;;5034745;28;20184;-60
2022/12/19 09:12:23;;;;;;;5.23;4.60;;;3.70;99.90;3.00;96663.00;;;;5016382;28;20216;-59
2022/12/19 09:14:50;;;;;;;1.90;1.80;;;3.80;99.90;2.90;96670.00;;;;5034136;28;20207;-59
2022/12/19 09:17:18;;;;;;;3.30;2.53;;;3.90;99.90;3.00;96661.00;;;;5034042;28;20224;-59
2022/12/19 09:19:45;;;;;;;2.37;2.10;;;4.00;99.90;3.10;96667.00;;;;5034300;28;20192;-59
2022/12/19 09:22:12;;;;;;;2.90;2.60;;;4.00;99.90;3.20;96678.00;;;;5034492;28;20209;-59
2022/12/19 09:24:40;;;;;;;2.63;2.40;;;4.10;99.90;3.00;96652.00;;;;5034224;28;20204;-59
2022/12/19 09:27:07;;;;;;;3.10;2.60;;;4.00;99.90;3.00;96663.00;;;;5034681;28;20540;-59
2022/12/19 09:29:34;;;;;;;2.50;2.40;;;4.10;99.90;3.20;96664.00;;;;5034703;28;20691;-60
2022/12/19 09:32:01;;;;;;;6.60;3.60;;;4.10;99.90;3.30;96664.00;;;;5034632;28;20231;-59
2022/12/19 09:34:29;;;;;;;3.97;3.03;;;4.20;99.90;3.40;96658.00;;;;5034061;28;20549;-59
2022/12/19 09:36:56;;;;;;;4.47;3.13;;;4.30;99.90;3.50;96667.00;;;;5034079;28;20220;-59
2022/12/19 09:39:23;;;;;;;4.67;2.70;;;4.40;99.90;3.40;96654.00;;;;5034526;28;20197;-59
2022/12/19 09:42:29;;;;;;;5.10;2.33;;;4.40;99.90;3.50;96667.00;;;;5033670;28;20286;-59
2022/12/19 09:45:17;;;;;;;2.20;1.70;;;4.50;99.90;3.60;96654.00;;;;5033626;28;20193;-59
2022/12/19 09:47:48;;;;;;;2.73;2.53;;;4.60;99.90;3.80;96649.00;;;;5033638;28;20188;-59
2022/12/19 09:50:32;;;;;;;4.77;1.87;;;4.70;99.90;3.80;96644.00;;;;5033868;28;20173;-59
2022/12/19 09:53:06;;;;;;;2.23;1.93;;;4.70;99.90;4.00;96644.00;;;;5033463;28;20212;-59
2022/12/19 09:55:39;;;;;;;9.43;3.77;;;4.90;99.90;4.10;96644.00;;;;5034171;28;20540;-59
2022/12/19 09:58:17;;;;;;;2.17;2.07;;;5.00;99.90;4.10;96646.00;;;;5033382;28;20204;-59
2022/12/19 10:00:49;;;;;;;2.27;2.17;;;5.00;99.90;4.10;96663.00;;;;5033953;28;20184;-59
2022/12/19 10:03:26;;;;;;;2.23;2.07;;;5.00;99.90;4.00;96659.00;;;;5033532;28;20702;-59
2022/12/19 10:05:57;;;;;;;4.40;2.87;;;4.90;99.90;3.80;96657.00;;;;5033420;28;20184;-59
2022/12/19 10:08:30;;;;;;;3.60;3.30;;;4.80;99.90;3.90;96657.00;;;;5033621;28;20579;-59
2022/12/19 10:11:08;;;;;;;3.67;3.37;;;4.80;99.90;4.00;96643.00;;;;5034129;28;20181;-59
2022/12/19 10:14:07;;;;;;;1.97;1.87;;;4.80;99.90;4.10;96642.00;;;;5033483;28;20221;-59
2022/12/19 10:16:49;;;;;;;1.20;1.20;;;5.00;99.90;4.20;96643.00;;;;5033331;28;20177;-59
2022/12/19 10:19:33;;;;;;;1.30;1.30;;;5.10;99.90;4.30;96648.00;;;;5033340;28;20181;-59
2022/12/19 10:22:17;;;;;;;3.43;3.13;;;5.20;99.90;4.40;96633.00;;;;5033176;28;20236;-59
2022/12/19 10:25:13;;;;;;;4.03;2.00;;;5.30;99.90;4.30;96646.00;;;;5015531;28;20214;-59
2022/12/19 10:27:52;;;;;;;2.33;2.13;;;5.30;99.90;4.50;96623.00;;;;5033674;28;20181;-59
2022/12/19 10:30:23;;;;;;;2.33;1.87;;;5.30;99.90;4.70;96635.00;;;;5033115;28;20177;-59
2022/12/19 10:33:12;;;;;;;1.93;1.83;;;5.50;99.90;4.30;96633.00;;;;5033172;28;20226;-60
2022/12/19 10:35:44;;;;;;;2.43;2.17;;;5.30;99.90;4.50;96630.00;;;;5015313;28;20185;-60
2022/12/19 10:38:26;;;;;;;3.70;3.00;;;5.40;99.90;4.50;96626.00;;;;5033769;28;20200;-60
2022/12/19 10:41:10;;;;;;;2.23;1.77;;;5.40;99.90;4.70;96631.00;;;;5033590;28;20181;-59
2022/12/19 10:43:52;;;;;;;4.07;2.90;;;5.50;99.90;4.60;96626.00;;;;5033200;28;20216;-59
2022/12/19 10:46:29;;;;;;;2.23;1.80;;;;;4.60;96630.00;;;;5032987;28;20185;-59
2022/12/19 10:48:56;;;;;;;3.53;3.23;;;;;4.90;96612.00;;;;5033238;28;20227;-60
2022/12/19 10:51:28;;;;;;;2.80;2.60;;;6.00;96.20;5.10;96601.00;;;;5032977;28;20193;-59
2022/12/19 10:53:57;;;;;;;2.73;2.17;;;6.10;97.60;5.40;96590.00;;;;5032955;28;20181;-59
2022/12/19 10:56:27;;;;;;;3.90;3.20;;;6.20;97.90;5.70;96585.00;;;;5033416;28;20280;-59
2022/12/19 10:58:57;;;;;;;3.07;2.40;;;6.40;99.70;5.70;96578.00;;;;5033057;28;20609;-59
2022/12/19 11:01:33;;;;;;;1.90;1.70;;;6.50;99.90;5.80;96587.00;;;;5033067;28;20231;-58
2022/12/19 11:04:24;;;;;;;4.10;3.07;;;;;6.20;96599.00;;;;5033418;28;20243;-59
2022/12/19 11:07:04;;;;;;;2.93;1.93;;;;;6.30;96606.00;;;;5033391;28;20230;-59
2022/12/19 11:09:36;;;;;;;3.33;2.90;;;;;6.30;96601.00;;;;5033084;28;20715;-59
2022/12/19 11:12:12;;;;;;;1.77;1.67;;;;;6.30;96594.00;;;;5032662;28;20215;-59
2022/12/19 11:14:41;;;;;;;2.37;2.17;;;;;6.40;96587.00;;;;5032994;28;20554;-59
2022/12/19 11:20:12;;;;;;;2.53;2.33;;;;;6.80;96581.00;;;;5091495;27;20633;-58
2022/12/19 11:22:45;;;;;;;2.37;2.20;;;;;7.50;96570.00;;;;5090605;28;20226;-58
2022/12/19 11:25:18;;;;;;;5.10;2.23;;;;;8.50;96566.00;;;;5091044;28;20182;-59
2022/12/19 11:27:48;;;;;;;2.23;2.10;;;;;9.40;96574.00;;;;5090925;28;20220;-59
2022/12/19 11:30:24;;;;;;;3.20;3.00;;;9.60;69.50;9.70;96571.00;;;;5090664;28;20184;-59
2022/12/19 11:33:11;;;;;;;1.90;1.80;;;10.10;66.20;10.30;96561.00;;;;5070440;28;20640;-59
2022/12/19 11:35:49;;;;;;;2.07;1.97;;;10.60;59.30;10.00;96543.00;;;;5070642;28;20537;-59
2022/12/19 11:38:22;;;;;;;2.17;1.97;;;10.60;56.40;9.80;96543.00;;;;5070185;28;20199;-58
2022/12/19 11:40:56;;;;;;;2.60;2.40;;;10.60;51.10;9.00;96551.00;;;;5070288;28;20192;-59
2022/12/19 11:43:34;;;;;;;2.37;2.17;;;10.10;51.90;9.90;96528.00;;;;5070694;28;20215;-59
2022/12/19 11:46:10;;;;;;;1.93;1.83;;;10.50;50.90;10.10;96519.00;;;;5070157;28;20191;-58
2022/12/19 11:48:41;;;;;;;4.23;2.73;;;;;11.60;96519.00;;;;5070607;28;20627;-58